createdAt,value
2022-11-07T00:00:55.171Z,12.1
2022-11-07T00:02:10.466Z,12.3
2022-11-07T00:03:26.772Z,13.9
2022-11-07T00:04:43.056Z,12.1
2022-11-07T00:05:59.343Z,15.9
2022-11-07T00:07:15.657Z,12.6
2022-11-07T00:08:31.950Z,14
2022-11-07T00:09:48.255Z,12.3
2022-11-07T00:11:04.527Z,13
2022-11-07T00:12:20.828Z,14.7
2022-11-07T00:13:37.109Z,12.9
2022-11-07T00:14:53.413Z,11.3
2022-11-07T00:16:09.715Z,11.3
2022-11-07T00:17:25.989Z,13.9
2022-11-07T00:18:41.298Z,11.3
2022-11-07T00:19:57.606Z,12.9
2022-11-07T00:21:13.900Z,13.2
2022-11-07T00:22:30.188Z,11.6
2022-11-07T00:23:46.490Z,13.5
2022-11-07T00:25:02.776Z,11.4
2022-11-07T00:26:19.078Z,11.2
2022-11-07T00:27:35.377Z,11.8
2022-11-07T00:28:51.661Z,13.4
2022-11-07T00:30:07.959Z,12.6
2022-11-07T00:31:24.238Z,13.4
2022-11-07T00:32:40.548Z,12.9
2022-11-07T00:33:56.829Z,13.1
2022-11-07T00:35:12.142Z,12.8
2022-11-07T00:36:28.440Z,11.9
2022-11-07T00:37:44.728Z,15.4
2022-11-07T00:39:01.039Z,13.4
2022-11-07T00:40:17.319Z,13.2
2022-11-07T00:41:33.611Z,14.9
2022-11-07T00:42:49.919Z,12.6
2022-11-07T00:44:06.221Z,12.2
2022-11-07T00:45:22.505Z,14.1
2022-11-07T00:46:38.797Z,13.8
2022-11-07T00:47:55.088Z,12.5
2022-11-07T00:49:11.403Z,14.4
2022-11-07T00:50:27.688Z,13.9
2022-11-07T00:51:42.990Z,15.7
2022-11-07T00:52:59.277Z,12.9
2022-11-07T00:54:15.574Z,13.8
2022-11-07T00:55:31.863Z,14.1
2022-11-07T00:56:48.156Z,12.5
2022-11-07T00:58:04.463Z,14.4
2022-11-07T00:59:20.757Z,12.9
2022-11-07T01:00:37.036Z,14.8
2022-11-07T01:01:53.333Z,13.4
2022-11-07T01:03:09.641Z,14.5
2022-11-07T01:04:25.922Z,12.7
2022-11-07T01:05:42.220Z,13.4
2022-11-07T01:06:58.508Z,12.9
2022-11-07T01:08:13.830Z,12.5
2022-11-07T01:09:30.119Z,12.1
2022-11-07T01:10:46.409Z,13.3
2022-11-07T01:12:02.709Z,12.9
2022-11-07T01:13:19.010Z,15.5
2022-11-07T01:14:35.302Z,13.5
2022-11-07T01:15:50.620Z,13.4
2022-11-07T01:17:06.923Z,13.9
2022-11-07T01:18:23.196Z,13.2
2022-11-07T01:19:39.503Z,12.3
2022-11-07T01:20:55.784Z,15.3
2022-11-07T01:22:12.094Z,13.6
2022-11-07T01:23:28.382Z,13.4
2022-11-07T01:24:44.667Z,12.7
2022-11-07T01:26:00.955Z,11.4
2022-11-07T01:27:17.254Z,13
2022-11-07T01:28:33.565Z,11.2
2022-11-07T01:29:49.855Z,12.5
2022-11-07T01:31:06.151Z,13.7
2022-11-07T01:32:21.441Z,13.5
2022-11-07T01:33:37.754Z,13.5
2022-11-07T01:34:54.049Z,15.5
2022-11-07T01:36:10.328Z,11.9
2022-11-07T01:37:26.617Z,12.9
2022-11-07T01:38:42.916Z,12.5
2022-11-07T01:39:59.218Z,12.3
2022-11-07T01:41:15.502Z,14.1
2022-11-07T01:42:31.798Z,11.5
2022-11-07T01:43:48.086Z,11.4
2022-11-07T01:45:04.392Z,10.9
2022-11-07T01:46:20.679Z,11.1
2022-11-07T01:47:36.982Z,11.9
2022-11-07T01:48:52.292Z,11.4
2022-11-07T01:50:08.591Z,11.6
2022-11-07T01:51:24.893Z,12.4
2022-11-07T01:52:41.176Z,11.4
2022-11-07T01:53:57.459Z,10.2
2022-11-07T01:55:13.762Z,11.5
2022-11-07T01:56:30.042Z,11.1
2022-11-07T01:57:46.348Z,11.1
2022-11-07T01:59:02.631Z,13.5
2022-11-07T02:00:18.927Z,12
2022-11-07T02:01:35.225Z,11.5
2022-11-07T02:02:51.530Z,12.4
2022-11-07T02:04:07.822Z,10.7
2022-11-07T02:05:23.138Z,11.3
2022-11-07T02:06:39.430Z,12.7
2022-11-07T02:07:55.718Z,11.6
2022-11-07T02:09:12.001Z,12.5
2022-11-07T02:10:28.295Z,9.8
2022-11-07T02:11:44.601Z,10.5
2022-11-07T02:13:00.878Z,11.4
2022-11-07T02:14:17.188Z,11.2
2022-11-07T02:15:33.487Z,11.3
2022-11-07T02:16:49.763Z,10.7
2022-11-07T02:18:06.057Z,11.4
2022-11-07T02:19:22.366Z,10.8
2022-11-07T02:20:38.653Z,9.6
2022-11-07T02:21:53.967Z,10.5
2022-11-07T02:23:10.265Z,12.6
2022-11-07T02:24:26.557Z,10.9
2022-11-07T02:25:42.836Z,10.1
2022-11-07T02:26:59.135Z,10.5
2022-11-07T02:28:15.420Z,9.8
2022-11-07T02:29:31.723Z,10.9
2022-11-07T02:30:48.023Z,10.5
2022-11-07T02:32:04.304Z,11
2022-11-07T02:33:20.597Z,10.4
2022-11-07T02:34:36.892Z,11.8
2022-11-07T02:35:53.191Z,10.2
2022-11-07T02:37:09.493Z,11.4
2022-11-07T02:38:24.813Z,12.3
2022-11-07T02:39:41.081Z,10.1
2022-11-07T02:40:57.401Z,9.5
2022-11-07T02:42:13.687Z,10.2
2022-11-07T02:43:29.968Z,11.3
2022-11-07T02:44:46.271Z,10.5
2022-11-07T02:46:02.581Z,9.4
2022-11-07T02:47:18.858Z,10.5
2022-11-07T02:48:35.146Z,10.3
2022-11-07T02:49:51.449Z,10.8
2022-11-07T02:51:07.746Z,10
2022-11-07T02:52:24.035Z,11.6
2022-11-07T02:53:40.315Z,9
2022-11-07T02:54:55.636Z,10.8
2022-11-07T02:56:11.930Z,10.6
2022-11-07T02:57:28.211Z,10.5
2022-11-07T02:58:44.519Z,9.1
2022-11-07T03:00:00.809Z,10.2
2022-11-07T03:01:17.102Z,10
2022-11-07T03:02:33.399Z,9.8
2022-11-07T03:03:49.697Z,8.5
2022-11-07T03:05:05.979Z,9.3
2022-11-07T03:06:22.278Z,9.3
2022-11-07T03:07:38.573Z,10.8
2022-11-07T03:08:54.867Z,9
2022-11-07T03:10:11.166Z,8.7
2022-11-07T03:11:26.470Z,9.9
2022-11-07T03:12:42.756Z,9.2
2022-11-07T03:13:59.061Z,8.9
2022-11-07T03:15:15.354Z,10.8
2022-11-07T03:16:31.651Z,10.4
2022-11-07T03:17:47.931Z,8.6
2022-11-07T03:19:04.224Z,10.7
2022-11-07T03:20:20.521Z,9.1
2022-11-07T03:21:36.826Z,9.4
2022-11-07T03:22:53.115Z,9
2022-11-07T03:24:09.410Z,9.9
2022-11-07T03:25:25.703Z,9.1
2022-11-07T03:26:41.994Z,9.6
2022-11-07T03:27:57.299Z,9.1
2022-11-07T03:29:13.596Z,10.1
2022-11-07T03:30:29.898Z,9.5
2022-11-07T03:31:46.189Z,8.7
2022-11-07T03:33:02.478Z,9.1
2022-11-07T03:34:18.784Z,9
2022-11-07T03:35:35.069Z,9.6
2022-11-07T03:36:51.350Z,10.3
2022-11-07T03:38:07.650Z,10
2022-11-07T03:39:23.952Z,9.1
2022-11-07T03:40:40.232Z,10.2
2022-11-07T03:41:56.526Z,10
2022-11-07T03:43:12.835Z,8.7
2022-11-07T03:44:28.149Z,8.2
2022-11-07T03:45:44.423Z,11.8
2022-11-07T03:47:00.722Z,9.5
2022-11-07T03:48:17.027Z,10.6
2022-11-07T03:49:33.328Z,9.7
2022-11-07T03:50:49.611Z,9.4
2022-11-07T03:52:05.892Z,9
2022-11-07T03:53:22.187Z,10.5
2022-11-07T03:54:38.495Z,9.9
2022-11-07T03:55:54.804Z,9.4
2022-11-07T03:57:11.085Z,10.8
2022-11-07T03:58:27.367Z,9.3
2022-11-07T03:59:43.670Z,9.8
2022-11-07T04:00:58.975Z,9.6
2022-11-07T04:02:15.285Z,11
2022-11-07T04:03:31.563Z,9.1
2022-11-07T04:04:47.873Z,9.4
2022-11-07T04:06:04.150Z,8.5
2022-11-07T04:07:20.456Z,9.4
2022-11-07T04:08:36.736Z,12.1
2022-11-07T04:09:53.037Z,10.1
2022-11-07T04:11:09.318Z,10.1
2022-11-07T04:12:25.628Z,8.5
2022-11-07T04:13:41.909Z,10.1
2022-11-07T04:14:58.212Z,8.5
2022-11-07T04:16:14.494Z,10
2022-11-07T04:17:29.816Z,9.4
2022-11-07T04:18:46.106Z,9.7
2022-11-07T04:20:02.402Z,8.7
2022-11-07T04:21:18.692Z,8.9
2022-11-07T04:22:34.987Z,9
2022-11-07T04:23:51.281Z,9.7
2022-11-07T04:25:07.577Z,9.8
2022-11-07T04:26:23.878Z,9.9
2022-11-07T04:27:40.169Z,8.4
2022-11-07T04:28:56.456Z,7.4
2022-11-07T04:30:12.755Z,8
2022-11-07T04:31:29.055Z,10.1
2022-11-07T04:32:45.339Z,8.7
2022-11-07T04:34:00.642Z,8.6
2022-11-07T04:35:16.942Z,10.7
2022-11-07T04:36:33.248Z,7.6
2022-11-07T04:37:49.530Z,8.5
2022-11-07T04:39:05.826Z,8.2
2022-11-07T04:40:22.121Z,9.6
2022-11-07T04:41:38.412Z,9.5
2022-11-07T04:42:54.703Z,8.7
2022-11-07T04:44:11.005Z,7.9
2022-11-07T04:45:27.293Z,10.1
2022-11-07T04:46:43.582Z,8
2022-11-07T04:47:59.876Z,8.2
2022-11-07T04:49:16.175Z,9.6
2022-11-07T04:50:31.484Z,8.6
2022-11-07T04:51:47.787Z,8.9
2022-11-07T04:53:04.071Z,7.5
2022-11-07T04:54:20.362Z,8.6
2022-11-07T04:55:36.668Z,10.4
2022-11-07T04:56:52.953Z,8.4
2022-11-07T04:58:09.254Z,7.4
2022-11-07T04:59:25.542Z,7.7
2022-11-07T05:00:41.835Z,9.4
2022-11-07T05:01:58.141Z,8.8
2022-11-07T05:03:14.420Z,7.9
2022-11-07T05:04:30.714Z,8.7
2022-11-07T05:05:47.028Z,8.9
2022-11-07T05:07:02.332Z,7.2
2022-11-07T05:08:18.622Z,8.3
2022-11-07T05:09:34.925Z,7.2
2022-11-07T05:10:51.206Z,7.2
2022-11-07T05:12:07.503Z,7.6
2022-11-07T05:13:23.795Z,7.6
2022-11-07T05:14:40.082Z,9.1
2022-11-07T05:15:56.385Z,7.7
2022-11-07T05:17:12.674Z,8.1
2022-11-07T05:18:00.522Z,12.9
2022-11-07T05:19:16.812Z,10.7
2022-11-07T05:20:33.113Z,7.9
2022-11-07T05:21:49.399Z,8
2022-11-07T05:23:05.701Z,7.5
2022-11-07T05:24:21.991Z,8.2
2022-11-07T05:25:38.282Z,8.3
2022-11-07T05:26:54.579Z,7.4
2022-11-07T05:28:10.877Z,7.3
2022-11-07T05:29:27.156Z,7.8
2022-11-07T05:30:43.465Z,7.3
2022-11-07T05:31:59.743Z,8.9
2022-11-07T05:33:16.032Z,8.7
2022-11-07T05:35:48.626Z,8
2022-11-07T05:37:04.931Z,8.2
2022-11-07T05:38:21.212Z,10.5
2022-11-07T05:39:37.507Z,8.3
2022-11-07T05:40:53.807Z,8.2
2022-11-07T05:42:10.102Z,9.7
2022-11-07T05:43:26.392Z,7.8
2022-11-07T05:44:41.660Z,7.4
2022-11-07T05:45:56.901Z,8.3
2022-11-07T05:47:13.151Z,9.7
2022-11-07T05:48:29.404Z,8.6
2022-11-07T05:49:45.699Z,8.6
2022-11-07T05:51:01.990Z,7
2022-11-07T05:52:18.269Z,9.8
2022-11-07T05:53:34.523Z,8.8
2022-11-07T05:54:50.764Z,7.3
2022-11-07T05:56:07.008Z,8.5
2022-11-07T05:57:23.250Z,6.9
2022-11-07T05:58:39.479Z,8.2
2022-11-07T05:59:55.717Z,7.5
2022-11-07T06:01:11.954Z,8.4
2022-11-07T06:02:27.216Z,7.4
2022-11-07T06:03:43.450Z,7.4
2022-11-07T06:04:59.690Z,8.2
2022-11-07T06:06:15.938Z,8.5
2022-11-07T06:07:32.173Z,7.5
2022-11-07T06:08:48.418Z,7.8
2022-11-07T06:10:04.668Z,9.5
2022-11-07T06:11:19.923Z,8.5
2022-11-07T06:12:35.169Z,8
2022-11-07T06:13:51.414Z,8.8
2022-11-07T06:15:07.657Z,9.3
2022-11-07T06:16:23.899Z,8.6
2022-11-07T06:17:40.132Z,7.9
2022-11-07T06:18:56.368Z,18.6
2022-11-07T06:20:12.609Z,7.9
2022-11-07T06:21:28.858Z,7.8
2022-11-07T06:22:45.086Z,8.4
2022-11-07T06:24:01.322Z,8.8
2022-11-07T06:25:17.559Z,9.5
2022-11-07T06:26:33.805Z,8.2
2022-11-07T06:27:50.048Z,7.4
2022-11-07T06:29:05.302Z,8.2
2022-11-07T06:30:21.536Z,7.8
2022-11-07T06:31:37.785Z,6.8
2022-11-07T06:32:54.012Z,8.3
2022-11-07T06:34:10.266Z,9.8
2022-11-07T06:35:26.502Z,7.9
2022-11-07T06:36:42.733Z,8
2022-11-07T06:37:58.012Z,8.2
2022-11-07T06:39:13.266Z,8.4
2022-11-07T06:40:29.488Z,7.7
2022-11-07T06:41:45.740Z,8.2
2022-11-07T06:43:01.972Z,7.6
2022-11-07T06:44:18.208Z,7.8
2022-11-07T06:45:34.457Z,6.7
2022-11-07T06:46:50.695Z,8
2022-11-07T06:48:06.930Z,8.6
2022-11-07T06:49:23.171Z,7.6
2022-11-07T06:50:39.421Z,9
2022-11-07T06:51:55.661Z,7.6
2022-11-07T06:53:11.888Z,7.5
2022-11-07T06:54:28.130Z,7
2022-11-07T06:55:43.386Z,6.7
2022-11-07T06:56:59.623Z,6.9
2022-11-07T06:58:15.872Z,8
2022-11-07T06:59:32.105Z,7.4
2022-11-07T07:00:48.357Z,7.6
2022-11-07T07:02:04.589Z,7.9
2022-11-07T07:03:20.832Z,6.9
2022-11-07T07:04:36.098Z,7
2022-11-07T07:05:51.343Z,8.5
2022-11-07T07:07:06.604Z,7.1
2022-11-07T07:08:21.859Z,6.9
2022-11-07T07:09:38.095Z,5
2022-11-07T07:10:54.349Z,4.9
2022-11-07T07:12:10.586Z,6.5
2022-11-07T07:13:26.822Z,6.6
2022-11-07T07:14:43.064Z,5.5
2022-11-07T07:15:59.295Z,5.9
2022-11-07T07:17:15.537Z,6
2022-11-07T07:18:31.772Z,5.8
2022-11-07T07:19:48.011Z,5.7
2022-11-07T07:21:04.270Z,7.1
2022-11-07T07:22:20.492Z,5.9
2022-11-07T07:23:36.738Z,7.2
2022-11-07T07:24:51.992Z,4.8
2022-11-07T07:26:08.227Z,6.2
2022-11-07T07:27:24.477Z,5.4
2022-11-07T07:28:40.717Z,6
2022-11-07T07:29:56.949Z,6.4
2022-11-07T07:31:13.199Z,4.9
2022-11-07T07:32:29.445Z,6.4
2022-11-07T07:33:45.682Z,5.9
2022-11-07T07:35:00.934Z,4.9
2022-11-07T07:36:16.184Z,5
2022-11-07T07:37:31.459Z,7.3
2022-11-07T07:38:46.718Z,6.6
2022-11-07T07:40:02.962Z,5.7
2022-11-07T07:41:19.189Z,5.3
2022-11-07T07:42:35.435Z,5
2022-11-07T07:43:51.667Z,5
2022-11-07T07:45:07.910Z,5.8
2022-11-07T07:46:24.146Z,5.5
2022-11-07T07:47:40.404Z,5.4
2022-11-07T07:48:56.622Z,6.6
2022-11-07T07:50:12.876Z,5.3
2022-11-07T07:51:29.103Z,5
2022-11-07T07:52:45.351Z,5.6
2022-11-07T07:54:01.583Z,5.3
2022-11-07T07:55:16.842Z,5.7
2022-11-07T07:56:33.102Z,5.1
2022-11-07T07:57:49.327Z,5.4
2022-11-07T07:59:05.574Z,5.6
2022-11-07T08:00:21.809Z,4.9
2022-11-07T08:01:38.048Z,5.6
2022-11-07T08:02:54.282Z,5.3
2022-11-07T08:04:09.556Z,5.4
2022-11-07T08:05:24.802Z,5.6
2022-11-07T08:06:40.058Z,4.3
2022-11-07T08:07:55.309Z,5
2022-11-07T08:09:10.589Z,5.4
2022-11-07T08:10:25.833Z,6.7
2022-11-07T08:11:42.086Z,4.9
2022-11-07T08:12:58.306Z,4.8
2022-11-07T08:14:14.565Z,5.6
2022-11-07T08:15:30.795Z,5.4
2022-11-07T08:16:47.030Z,4.4
2022-11-07T08:18:03.287Z,6.9
2022-11-07T08:19:19.526Z,4.5
2022-11-07T08:20:35.758Z,5.7
2022-11-07T08:21:51.994Z,5.7
2022-11-07T08:23:08.230Z,5.4
2022-11-07T08:24:24.475Z,5.2
2022-11-07T08:25:40.715Z,5.4
2022-11-07T08:26:55.972Z,5
2022-11-07T08:28:12.207Z,5.4
2022-11-07T08:29:28.442Z,5.2
2022-11-07T08:30:44.700Z,4.7
2022-11-07T08:32:00.924Z,6.2
2022-11-07T08:33:17.173Z,4.6
2022-11-07T08:34:33.404Z,5.5
2022-11-07T08:35:48.680Z,6.2
2022-11-07T08:37:03.939Z,8
2022-11-07T08:38:20.179Z,6.5
2022-11-07T08:39:36.411Z,6.2
2022-11-07T08:40:52.652Z,5.9
2022-11-07T08:42:08.896Z,5.4
2022-11-07T08:43:25.120Z,6.2
2022-11-07T08:44:41.376Z,5.1
2022-11-07T08:45:57.603Z,5.5
2022-11-07T08:47:13.850Z,5.3
2022-11-07T08:48:30.092Z,6.5
2022-11-07T08:49:46.337Z,5.8
2022-11-07T08:51:02.568Z,5.9
2022-11-07T08:52:18.807Z,5.7
2022-11-07T08:53:34.054Z,7.5
2022-11-07T08:54:50.294Z,5.4
2022-11-07T08:56:06.535Z,5.7
2022-11-07T08:57:22.792Z,6.2
2022-11-07T08:58:39.014Z,6
2022-11-07T08:59:55.264Z,7.2
2022-11-07T09:01:11.505Z,5.9
2022-11-07T09:02:26.766Z,7.5
2022-11-07T09:03:42.020Z,5
2022-11-07T09:04:57.273Z,5.4
2022-11-07T09:06:12.541Z,8.6
2022-11-07T09:07:27.798Z,5.4
2022-11-07T09:08:43.060Z,4.4
2022-11-07T09:09:59.284Z,5.6
2022-11-07T09:11:15.520Z,5.2
2022-11-07T09:12:31.771Z,5.5
2022-11-07T09:13:48.008Z,5.3
2022-11-07T09:15:04.250Z,5.4
2022-11-07T09:16:20.490Z,6.8
2022-11-07T09:17:36.731Z,4.5
2022-11-07T09:18:52.971Z,4.1
2022-11-07T09:20:09.209Z,5.7
2022-11-07T09:21:25.443Z,6
2022-11-07T09:22:41.682Z,4.5
2022-11-07T09:23:57.926Z,5.1
2022-11-07T09:25:13.173Z,5.7
2022-11-07T09:26:29.424Z,5.6
2022-11-07T09:27:45.664Z,4.9
2022-11-07T09:29:01.909Z,4.7
2022-11-07T09:30:18.150Z,6.9
2022-11-07T09:31:34.372Z,6.6
2022-11-07T09:32:49.639Z,4.4
2022-11-07T09:34:04.909Z,5.3
2022-11-07T09:35:20.166Z,4.4
2022-11-07T09:36:36.398Z,5.1
2022-11-07T09:37:52.646Z,4.6
2022-11-07T09:39:08.876Z,4.3
2022-11-07T09:40:25.105Z,4
2022-11-07T09:41:41.346Z,6.6
2022-11-07T09:42:57.587Z,4.7
2022-11-07T09:44:13.835Z,8
2022-11-07T09:45:30.077Z,8.1
2022-11-07T09:46:46.305Z,4.6
2022-11-07T09:48:02.554Z,5.1
2022-11-07T09:49:18.785Z,5.6
2022-11-07T09:50:35.023Z,6.5
2022-11-07T09:51:50.284Z,6.3
2022-11-07T09:53:06.520Z,5.6
2022-11-07T09:54:22.753Z,5.5
2022-11-07T09:55:38.989Z,8
2022-11-07T09:56:55.232Z,6.8
2022-11-07T09:58:11.459Z,5.9
2022-11-07T09:59:27.700Z,5
2022-11-07T10:00:42.960Z,7.9
2022-11-07T10:01:58.220Z,6.8
2022-11-07T10:03:14.455Z,4.1
2022-11-07T10:04:30.695Z,9.9
2022-11-07T10:05:46.945Z,4.4
2022-11-07T10:07:03.000Z,6.4
2022-11-07T10:08:19.406Z,5.5
2022-11-07T10:09:35.652Z,8
2022-11-07T10:10:51.899Z,5.7
2022-11-07T10:12:08.117Z,6.2
2022-11-07T10:13:24.357Z,4.5
2022-11-07T10:14:40.602Z,8.4
2022-11-07T10:15:56.832Z,8.1
2022-11-07T10:17:13.080Z,5.3
2022-11-07T10:18:28.331Z,4.6
2022-11-07T10:19:44.585Z,7.2
2022-11-07T10:21:00.817Z,5.9
2022-11-07T10:22:17.051Z,6.4
2022-11-07T10:23:33.291Z,4.8
2022-11-07T10:24:49.526Z,5.3
2022-11-07T10:26:05.762Z,5.9
2022-11-07T10:27:21.030Z,5.3
2022-11-07T10:28:36.279Z,10.5
2022-11-07T10:29:51.554Z,4.1
2022-11-07T10:31:06.809Z,4.8
2022-11-07T10:32:23.036Z,11.4
2022-11-07T10:33:39.271Z,5.4
2022-11-07T10:34:55.507Z,4.8
2022-11-07T10:36:11.754Z,3.8
2022-11-07T10:37:27.986Z,4.2
2022-11-07T10:38:44.225Z,6.1
2022-11-07T10:40:00.478Z,6.2
2022-11-07T10:41:16.711Z,5.8
2022-11-07T10:42:32.948Z,5.5
2022-11-07T10:43:49.182Z,4.7
2022-11-07T10:45:05.425Z,6.5
2022-11-07T10:46:21.656Z,5.2
2022-11-07T10:47:36.914Z,7.7
2022-11-07T10:48:53.173Z,4.2
2022-11-07T10:50:09.399Z,4.8
2022-11-07T10:51:25.642Z,6
2022-11-07T10:52:41.868Z,6.3
2022-11-07T10:53:58.122Z,4.7
2022-11-07T10:55:14.354Z,5.5
2022-11-07T10:56:29.604Z,3.6
2022-11-07T10:57:44.854Z,6.3
2022-11-07T10:59:00.116Z,5.9
2022-11-07T11:00:15.371Z,5.7
2022-11-07T11:01:30.633Z,5.1
2022-11-07T11:02:45.901Z,5.2
2022-11-07T11:04:02.132Z,7.1
2022-11-07T11:05:18.380Z,7.1
2022-11-07T11:06:34.601Z,3.2
2022-11-07T11:07:50.847Z,5.4
2022-11-07T11:09:07.089Z,3.3
2022-11-07T11:10:23.337Z,4.3
2022-11-07T11:11:39.571Z,7
2022-11-07T11:12:55.808Z,5.8
2022-11-07T11:14:12.039Z,5.7
2022-11-07T11:15:28.282Z,4.6
2022-11-07T11:16:44.516Z,5.7
2022-11-07T11:18:00.762Z,5.7
2022-11-07T11:19:16.012Z,7.1
2022-11-07T11:20:32.242Z,7.5
2022-11-07T11:21:48.495Z,4.5
2022-11-07T11:23:04.723Z,5.5
2022-11-07T11:24:20.971Z,8.5
2022-11-07T11:25:37.194Z,6.7
2022-11-07T11:26:53.433Z,7.5
2022-11-07T11:28:08.692Z,5.5
2022-11-07T11:29:23.969Z,5.7
2022-11-07T11:30:39.216Z,3.8
2022-11-07T11:31:54.466Z,3.9
2022-11-07T11:33:10.698Z,7.6
2022-11-07T11:34:26.945Z,4.7
2022-11-07T11:35:43.189Z,5
2022-11-07T11:36:59.432Z,6.9
2022-11-07T11:38:15.681Z,3.7
2022-11-07T11:39:31.905Z,6.2
2022-11-07T11:40:48.147Z,8
2022-11-07T11:42:04.385Z,5.1
2022-11-07T11:43:20.607Z,3.7
2022-11-07T11:44:36.848Z,4.2
2022-11-07T11:45:53.091Z,7.5
2022-11-07T11:47:09.321Z,5.5
2022-11-07T11:48:24.586Z,6.7
2022-11-07T11:49:40.830Z,6.6
2022-11-07T11:50:57.056Z,6.2
2022-11-07T11:52:13.291Z,7.2
2022-11-07T11:53:29.530Z,8.5
2022-11-07T11:54:45.782Z,6.7
2022-11-07T11:56:02.012Z,4.7
2022-11-07T11:57:17.271Z,6.2
2022-11-07T11:58:32.527Z,3.6
2022-11-07T11:59:47.795Z,5
2022-11-07T12:01:03.054Z,4.7
2022-11-07T12:02:19.286Z,9
2022-11-07T12:03:35.540Z,6.1
2022-11-07T12:04:51.768Z,7.4
2022-11-07T12:06:07.992Z,6.1
2022-11-07T12:07:24.249Z,5
2022-11-07T12:08:40.478Z,3.9
2022-11-07T12:09:56.714Z,8.5
2022-11-07T12:11:12.951Z,7.3
2022-11-07T12:12:29.188Z,5
2022-11-07T12:13:45.425Z,5.9
2022-11-07T12:15:01.662Z,3.3
2022-11-07T12:16:17.906Z,6.3
2022-11-07T12:17:33.153Z,7
2022-11-07T12:18:49.390Z,4.4
2022-11-07T12:20:05.634Z,6.2
2022-11-07T12:21:21.882Z,4.3
2022-11-07T12:22:38.112Z,6.3
2022-11-07T12:23:54.359Z,4
2022-11-07T12:25:10.596Z,3.3
2022-11-07T12:26:25.861Z,7
2022-11-07T12:27:41.101Z,4.8
2022-11-07T12:28:56.358Z,6.5
2022-11-07T12:30:11.612Z,6.3
2022-11-07T12:31:27.867Z,4.7
2022-11-07T12:32:44.093Z,6.1
2022-11-07T12:34:00.343Z,6.2
2022-11-07T12:35:16.563Z,5.1
2022-11-07T12:36:32.815Z,7.9
2022-11-07T12:37:49.064Z,5.5
2022-11-07T12:39:05.295Z,7.5
2022-11-07T12:40:21.524Z,7.4
2022-11-07T12:41:37.765Z,5.9
2022-11-07T12:42:54.016Z,5.5
2022-11-07T12:44:10.246Z,4.2
2022-11-07T12:45:26.488Z,6.8
2022-11-07T12:46:41.744Z,7.8
2022-11-07T12:47:57.977Z,6.4
2022-11-07T12:49:14.209Z,6.9
2022-11-07T12:50:30.445Z,5.5
2022-11-07T12:51:46.681Z,7.4
2022-11-07T12:53:02.935Z,5.7
2022-11-07T12:54:19.162Z,5.8
2022-11-07T12:55:34.425Z,6.5
2022-11-07T12:56:49.683Z,6.3
2022-11-07T12:58:05.916Z,8
2022-11-07T12:59:22.160Z,8
2022-11-07T13:00:38.405Z,5.4
2022-11-07T13:01:54.631Z,4.5
2022-11-07T13:03:10.884Z,4.3
2022-11-07T13:04:27.112Z,6.4
2022-11-07T13:05:43.347Z,7.5
2022-11-07T13:06:59.585Z,6.5
2022-11-07T13:08:15.840Z,5.5
2022-11-07T13:09:32.080Z,4.4
2022-11-07T13:10:48.317Z,5.3
2022-11-07T13:12:04.542Z,7.1
2022-11-07T13:13:19.792Z,4.5
2022-11-07T13:14:36.034Z,4.5
2022-11-07T13:15:52.283Z,5.7
2022-11-07T13:17:08.513Z,5.9
2022-11-07T13:18:24.758Z,5.9
2022-11-07T13:19:40.985Z,4.9
2022-11-07T13:20:57.241Z,7.9
2022-11-07T13:22:12.486Z,8.6
2022-11-07T13:23:27.742Z,7.2
2022-11-07T13:24:43.003Z,5.1
2022-11-07T13:25:58.264Z,4.4
2022-11-07T13:27:14.512Z,6.4
2022-11-07T13:28:30.736Z,7.6
2022-11-07T13:29:46.979Z,8.5
2022-11-07T13:31:03.208Z,6.7
2022-11-07T13:32:19.449Z,6.9
2022-11-07T13:33:35.696Z,6.2
2022-11-07T13:34:51.935Z,6.3
2022-11-07T13:36:08.170Z,6.2
2022-11-07T13:37:24.409Z,4.9
2022-11-07T13:38:40.652Z,5.1
2022-11-07T13:39:56.882Z,6.4
2022-11-07T13:41:13.126Z,6.9
2022-11-07T13:42:28.386Z,5.5
2022-11-07T13:43:44.628Z,4.9
2022-11-07T13:45:00.851Z,4.8
2022-11-07T13:46:17.100Z,5.2
2022-11-07T13:47:32.354Z,5.7
2022-11-07T13:48:48.585Z,6.3
2022-11-07T13:50:04.824Z,6.4
2022-11-07T13:51:20.096Z,4.5
2022-11-07T13:52:35.337Z,6.7
2022-11-07T13:53:51.585Z,6.1
2022-11-07T13:55:07.823Z,6.5
2022-11-07T13:56:24.065Z,6.5
2022-11-07T13:57:40.304Z,6.7
2022-11-07T13:58:56.542Z,5.3
2022-11-07T14:00:12.768Z,8.5
2022-11-07T14:01:29.015Z,7.3
2022-11-07T14:02:45.249Z,5.4
2022-11-07T14:04:01.487Z,7.8
2022-11-07T14:05:17.734Z,5.4
2022-11-07T14:06:33.975Z,5.9
2022-11-07T14:07:50.214Z,6.8
2022-11-07T14:09:05.461Z,4.2
2022-11-07T14:10:21.710Z,5.9
2022-11-07T14:11:37.931Z,4.6
2022-11-07T14:12:54.173Z,5.2
2022-11-07T14:14:10.418Z,7.6
2022-11-07T14:15:26.657Z,7.2
2022-11-07T14:16:42.894Z,5.8
2022-11-07T14:17:58.156Z,5.9
2022-11-07T14:19:13.407Z,6.5
2022-11-07T14:20:28.664Z,6.2
2022-11-07T14:21:43.913Z,7.2
2022-11-07T14:23:00.156Z,7.2
2022-11-07T14:24:16.409Z,5.6
2022-11-07T14:25:32.633Z,7.1
2022-11-07T14:26:48.869Z,5.6
2022-11-07T14:28:05.116Z,8.2
2022-11-07T14:29:21.347Z,5.9
2022-11-07T14:30:37.592Z,7.5
2022-11-07T14:31:53.827Z,5.7
2022-11-07T14:33:10.062Z,6.1
2022-11-07T14:34:26.311Z,9.6
2022-11-07T14:35:42.547Z,5.4
2022-11-07T14:36:58.784Z,6.6
2022-11-07T14:38:14.035Z,3.9
2022-11-07T14:39:30.285Z,6.5
2022-11-07T14:40:46.523Z,3.9
2022-11-07T14:42:02.758Z,4.8
2022-11-07T14:43:18.989Z,5.3
2022-11-07T14:44:35.230Z,4.7
2022-11-07T14:45:51.463Z,8.4
2022-11-07T14:47:06.722Z,5.6
2022-11-07T14:48:21.982Z,4.2
2022-11-07T14:49:37.242Z,8.6
2022-11-07T14:50:52.495Z,6.4
2022-11-07T14:52:08.743Z,9
2022-11-07T14:53:24.978Z,5.8
2022-11-07T14:54:41.223Z,5.1
2022-11-07T14:55:57.454Z,9.7
2022-11-07T14:57:13.689Z,4.9
2022-11-07T14:58:29.925Z,5.9
2022-11-07T14:59:46.161Z,9.6
2022-11-07T15:01:02.400Z,5.7
2022-11-07T15:02:18.634Z,5.5
2022-11-07T15:03:34.893Z,5.1
2022-11-07T15:04:51.116Z,8
2022-11-07T15:06:07.352Z,6.1
2022-11-07T15:07:22.608Z,6.8
2022-11-07T15:08:38.852Z,8.5
2022-11-07T15:09:55.105Z,4.5
2022-11-07T15:11:11.343Z,11.3
2022-11-07T15:12:27.569Z,6.9
2022-11-07T15:13:43.818Z,8.3
2022-11-07T15:15:00.049Z,5.8
2022-11-07T15:16:15.311Z,9.2
2022-11-07T15:17:30.574Z,5
2022-11-07T15:18:45.823Z,5
2022-11-07T15:20:01.075Z,7.6
2022-11-07T15:21:17.329Z,4.6
2022-11-07T15:22:33.560Z,8.8
2022-11-07T15:23:49.794Z,6.2
2022-11-07T15:25:06.041Z,8.3
2022-11-07T15:26:22.268Z,8.6
2022-11-07T15:27:38.526Z,6.7
2022-11-07T15:28:54.764Z,7.9
2022-11-07T15:30:10.993Z,5.8
2022-11-07T15:31:27.243Z,9.9
2022-11-07T15:32:43.484Z,7.6
2022-11-07T15:33:59.715Z,7.5
2022-11-07T15:35:15.941Z,8.1
2022-11-07T15:36:31.218Z,6.2
2022-11-07T15:37:47.443Z,6.5
2022-11-07T15:39:03.686Z,6.6
2022-11-07T15:40:19.921Z,9.5
2022-11-07T15:41:36.161Z,7.2
2022-11-07T15:42:52.409Z,7.6
2022-11-07T15:44:08.642Z,8
2022-11-07T15:45:23.905Z,8.7
2022-11-07T15:46:39.151Z,7.4
2022-11-07T15:47:54.410Z,7.8
2022-11-07T15:49:09.671Z,8.7
2022-11-07T15:50:25.900Z,10.2
2022-11-07T15:51:42.145Z,4.7
2022-11-07T15:52:58.397Z,8.2
2022-11-07T15:54:14.617Z,6.9
2022-11-07T15:55:30.861Z,7.1
2022-11-07T15:56:47.094Z,13.6
2022-11-07T15:58:03.335Z,7.8
2022-11-07T15:59:19.633Z,5.7
2022-11-07T16:00:35.929Z,4.2
2022-11-07T16:01:52.229Z,6
2022-11-07T16:03:08.519Z,4.5
2022-11-07T16:04:24.808Z,8.1
2022-11-07T16:05:40.122Z,7.8
2022-11-07T16:06:56.415Z,5.3
2022-11-07T16:08:12.696Z,6
2022-11-07T16:09:28.986Z,9.1
2022-11-07T16:10:45.278Z,5.9
2022-11-07T16:12:01.572Z,5.7
2022-11-07T16:13:17.871Z,9.2
2022-11-07T16:14:33.183Z,7.8
2022-11-07T16:15:48.501Z,6.8
2022-11-07T16:17:04.790Z,8.4
2022-11-07T16:18:21.091Z,6.4
2022-11-07T16:19:37.369Z,5.1
2022-11-07T16:20:53.660Z,8.7
2022-11-07T16:22:09.956Z,5.8
2022-11-07T16:23:26.260Z,6.1
2022-11-07T16:24:42.541Z,6.2
2022-11-07T16:25:58.842Z,5.4
2022-11-07T16:27:15.126Z,7.8
2022-11-07T16:28:31.425Z,7.1
2022-11-07T16:29:47.706Z,8.1
2022-11-07T16:31:03.999Z,5.8
2022-11-07T16:32:19.317Z,6.8
2022-11-07T16:33:35.605Z,7.5
2022-11-07T16:34:51.912Z,6.8
2022-11-07T16:36:08.205Z,4.3
2022-11-07T16:37:24.488Z,5.4
2022-11-07T16:38:40.783Z,7.5
2022-11-07T16:39:57.065Z,5.6
2022-11-07T16:41:12.385Z,6.3
2022-11-07T16:42:27.703Z,8.5
2022-11-07T16:43:43.011Z,5.4
2022-11-07T16:44:58.312Z,5
2022-11-07T16:46:13.629Z,6.4
2022-11-07T16:47:28.937Z,5.1
2022-11-07T16:48:45.248Z,9
2022-11-07T16:50:01.532Z,6.4
2022-11-07T16:51:17.813Z,6
2022-11-07T16:52:34.110Z,6.8
2022-11-07T16:53:50.413Z,5
2022-11-07T16:55:06.704Z,7.1
2022-11-07T16:56:22.987Z,7.8
2022-11-07T16:57:39.277Z,7.5
2022-11-07T16:58:55.585Z,5.8
2022-11-07T17:00:11.865Z,8
2022-11-07T17:01:28.174Z,7.6
2022-11-07T17:02:44.455Z,5.6
2022-11-07T17:03:59.772Z,5.8
2022-11-07T17:05:16.058Z,5.6
2022-11-07T17:06:32.354Z,7.3
2022-11-07T17:07:48.637Z,7.9
2022-11-07T17:09:04.942Z,7.9
2022-11-07T17:10:21.230Z,5.9
2022-11-07T17:11:37.516Z,9.3
2022-11-07T17:12:52.839Z,5.7
2022-11-07T17:14:08.153Z,11.6
2022-11-07T17:15:23.472Z,4.7
2022-11-07T17:16:38.764Z,6.8
2022-11-07T17:17:55.062Z,6.5
2022-11-07T17:19:11.354Z,7.3
2022-11-07T17:20:27.640Z,7.4
2022-11-07T17:21:43.943Z,5.8
2022-11-07T17:23:00.232Z,10.8
2022-11-07T17:24:16.538Z,9
2022-11-07T17:25:32.825Z,7.4
2022-11-07T17:26:49.124Z,7.1
2022-11-07T17:28:05.402Z,6.4